Highest pressure

Not for real navigation. The accuracy of this data is not assured See disclaimer for more information



ICAO NAME COUNTRY WIND Kt GUST Kt VIS m TEMP/DEW C BARO METAR
SLPO Potosi Bolivia 0 0 9999 -2/-4 30.83 SLPO 181200Z 00000KT 9999 FEW020 BKN200 M02/M04 Q1044
SLLP La Paz / Alto Bolivia 6 0 6000 4/0 30.77 SLLP 181300Z 09006KT 6000 FEW004 BKN200 04/00 Q1042
SPHY Andahuayla Peru 0 0 9999 2/-9 30.71 SPHY 181300Z /////KT CAVOK 02/M09 Q1040 RMK BIRD HAZARD RWY 03/21 PP000
SPJL Juliaca Peru 1 0 9999 3/-3 30.71 SPJL 181300Z VRB01KT CAVOK 03/M03 Q1040 RMK PP000
SPZO Cuzco Peru 0 0 9999 6/-1 30.68 SPZO 181300Z 00000KT 9999 NSC 06/M01 Q1039 NOSIG RMK HZ QUAD N BIRD HAZARD RWY 28 PP000

Show more